Time;durP1;ratioP1;P1;durP2;ratioP2;P2;SDS_P1;SDS_P2;PMS_P1;PMS_P2;Temp;Humidity;BMP_temperature;BMP_pressure;BME280_temperature;BME280_humidity;BME280_pressure;Samples;Min_cycle;Max_cycle;Signal;HPM_P1;HPM_P2
2022/12/06 00:01:15;;;;;;;3.57;2.97;;;3.70;99.30;;;;;;5006845;28;20474;-60
2022/12/06 00:03:42;;;;;;;4.33;3.30;;;3.70;99.40;;;;;;5032328;28;20497;-59
2022/12/06 00:06:16;;;;;;;3.20;2.73;;;3.70;99.50;;;;;;5017782;28;20434;-60
2022/12/06 00:08:43;;;;;;;4.47;3.00;;;3.70;99.50;;;;;;5030649;28;20451;-60
2022/12/06 00:11:18;;;;;;;3.03;2.67;;;3.70;99.60;;;;;;5038672;28;20841;-60
2022/12/06 00:13:44;;;;;;;4.47;3.43;;;3.70;99.50;;;;;;5033479;28;20437;-60
2022/12/06 00:16:13;;;;;;;4.37;3.13;;;3.60;99.50;;;;;;5034937;28;20437;-60
2022/12/06 00:18:41;;;;;;;3.60;2.93;;;3.60;99.40;;;;;;5018937;28;20431;-60
2022/12/06 00:21:32;;;;;;;4.30;3.27;;;3.60;99.50;;;;;;5028707;28;20442;-59
2022/12/06 00:24:04;;;;;;;5.67;3.80;;;3.60;99.40;;;;;;5026077;28;20469;-60
2022/12/06 00:26:33;;;;;;;5.13;3.83;;;3.60;99.40;;;;;;5033482;28;20440;-60
2022/12/06 00:29:00;;;;;;;3.87;3.33;;;3.60;99.40;;;;;;5032003;28;20421;-60
2022/12/06 00:31:27;;;;;;;3.17;2.87;;;3.60;99.40;;;;;;5014213;28;20461;-60
2022/12/06 00:33:53;;;;;;;3.77;3.33;;;3.60;99.50;;;;;;5016852;28;20426;-59
2022/12/06 00:36:24;;;;;;;3.23;2.70;;;3.50;99.10;;;;;;5035244;28;20924;-60
2022/12/06 00:38:50;;;;;;;2.60;2.40;;;3.50;98.70;;;;;;5030026;28;20449;-60
2022/12/06 00:41:18;;;;;;;3.17;2.10;;;3.50;99.10;;;;;;5013766;28;20445;-60
2022/12/06 00:43:45;;;;;;;2.93;2.33;;;3.50;99.30;;;;;;5030310;28;20545;-60
2022/12/06 00:46:19;;;;;;;3.30;2.10;;;3.50;99.00;;;;;;5026804;28;20548;-59
2022/12/06 00:48:46;;;;;;;2.37;1.90;;;3.50;99.10;;;;;;5028140;28;20421;-60
2022/12/06 00:51:13;;;;;;;2.40;2.20;;;3.40;98.90;;;;;;5033593;28;20531;-60
2022/12/06 00:53:39;;;;;;;2.80;2.47;;;3.30;98.90;;;;;;5027793;28;20445;-60
2022/12/06 00:56:05;;;;;;;2.67;2.30;;;3.30;98.70;;;;;;5026225;28;20947;-60
2022/12/06 00:58:31;;;;;;;3.33;2.20;;;3.30;98.80;;;;;;5023555;28;20202;-60
2022/12/06 01:01:07;;;;;;;3.23;1.87;;;3.20;98.80;;;;;;5006723;28;20454;-60
2022/12/06 01:03:33;;;;;;;2.33;2.13;;;3.20;98.80;;;;;;5031319;28;20210;-60
2022/12/06 01:06:04;;;;;;;1.70;1.60;;;3.10;98.70;;;;;;5013100;28;20443;-60
2022/12/06 01:08:30;;;;;;;2.53;2.20;;;3.10;98.70;;;;;;5032632;28;20189;-60
2022/12/06 01:10:55;;;;;;;3.00;2.70;;;3.10;98.60;;;;;;5033851;28;20422;-60
2022/12/06 01:13:21;;;;;;;3.00;2.63;;;3.00;98.40;;;;;;5001034;28;20665;-60
2022/12/06 01:15:47;;;;;;;4.00;3.23;;;3.00;98.60;;;;;;5033752;28;20642;-60
2022/12/06 01:18:13;;;;;;;6.27;3.47;;;2.90;98.50;;;;;;5033895;28;20195;-60
2022/12/06 01:20:38;;;;;;;3.23;2.80;;;2.80;98.20;;;;;;5019872;28;20283;-60
2022/12/06 01:23:04;;;;;;;3.30;3.00;;;2.90;98.70;;;;;;5011062;28;20199;-60
2022/12/06 01:25:31;;;;;;;3.90;3.10;;;2.90;99.10;;;;;;5034027;28;20218;-60
2022/12/06 01:27:57;;;;;;;4.90;2.90;;;2.80;99.00;;;;;;5022213;28;20223;-60
2022/12/06 01:30:23;;;;;;;6.13;3.03;;;2.80;99.00;;;;;;5018193;28;20440;-60
2022/12/06 01:32:49;;;;;;;3.37;2.77;;;2.80;99.20;;;;;;5033942;28;20427;-60
2022/12/06 01:35:15;;;;;;;5.00;2.83;;;2.90;99.20;;;;;;5028202;28;20194;-60
2022/12/06 01:37:40;;;;;;;3.00;2.70;;;2.90;99.40;;;;;;5013238;28;20291;-60
2022/12/06 01:40:07;;;;;;;2.70;2.00;;;2.90;99.50;;;;;;5023029;28;20281;-60
2022/12/06 01:42:33;;;;;;;2.00;1.90;;;2.90;99.50;;;;;;5018385;28;20282;-60
2022/12/06 01:44:58;;;;;;;2.07;1.87;;;3.00;99.60;;;;;;5019398;28;20596;-60
2022/12/06 01:47:26;;;;;;;3.43;2.67;;;3.00;99.60;;;;;;5012401;28;20240;-60
2022/12/06 01:50:28;;;;;;;2.80;2.20;;;3.00;99.60;;;;;;5033754;28;20254;-60
2022/12/06 01:53:05;;;;;;;4.40;2.70;;;3.10;99.60;;;;;;5024629;28;20431;-60
2022/12/06 01:55:36;;;;;;;3.33;2.93;;;3.10;99.70;;;;;;5032988;28;20425;-60
2022/12/06 01:58:16;;;;;;;3.47;2.50;;;3.10;99.70;;;;;;5034646;28;20511;-60
2022/12/06 02:00:42;;;;;;;2.03;1.80;;;3.10;99.60;;;;;;5029136;28;20506;-60
2022/12/06 02:03:15;;;;;;;3.10;2.33;;;3.10;99.70;;;;;;5042009;28;20489;-60
2022/12/06 02:05:41;;;;;;;3.20;2.90;;;3.10;99.70;;;;;;5031431;28;20183;-60
2022/12/06 02:08:08;;;;;;;2.37;2.13;;;3.10;99.60;;;;;;5017430;28;20433;-60
2022/12/06 02:10:35;;;;;;;2.23;2.03;;;3.10;99.20;;;;;;5005840;28;20217;-60
2022/12/06 02:13:00;;;;;;;2.03;1.83;;;3.00;99.20;;;;;;5004312;28;20431;-60
2022/12/06 02:15:53;;;;;;;2.70;2.43;;;3.10;99.50;;;;;;5011786;28;20657;-60
2022/12/06 02:18:25;;;;;;;2.40;2.13;;;3.10;99.50;;;;;;5009401;28;20245;-60
2022/12/06 02:21:06;;;;;;;3.00;2.70;;;3.10;99.50;;;;;;5014407;28;20429;-60
2022/12/06 02:23:46;;;;;;;3.03;2.73;;;3.00;99.20;;;;;;5013145;28;20457;-60
2022/12/06 02:26:23;;;;;;;2.60;2.40;;;3.00;99.20;;;;;;5030332;28;20437;-60
2022/12/06 02:29:21;;;;;;;2.33;2.00;;;2.90;99.20;;;;;;5030769;28;20437;-60
2022/12/06 02:31:52;;;;;;;2.40;1.97;;;2.90;99.20;;;;;;5031319;28;20446;-60
2022/12/06 02:34:29;;;;;;;3.63;2.23;;;2.90;99.10;;;;;;5032332;28;20473;-60
2022/12/06 02:37:27;;;;;;;2.27;2.00;;;2.80;99.10;;;;;;5028367;28;20426;-60
2022/12/06 02:40:02;;;;;;;2.40;2.20;;;2.70;98.80;;;;;;5020366;28;20430;-60
2022/12/06 02:42:53;;;;;;;3.50;2.47;;;2.60;98.80;;;;;;5032742;28;20522;-60
2022/12/06 02:45:25;;;;;;;3.40;2.50;;;2.60;98.90;;;;;;5033152;28;20559;-60
2022/12/06 02:47:53;;;;;;;3.57;2.40;;;2.50;98.90;;;;;;5025729;28;20432;-60
2022/12/06 02:50:25;;;;;;;2.73;2.47;;;2.50;98.90;;;;;;5011762;28;20422;-60
2022/12/06 02:52:53;;;;;;;2.63;2.30;;;2.50;98.80;;;;;;5032413;28;20429;-60
2022/12/06 02:55:20;;;;;;;4.47;2.00;;;2.40;98.70;;;;;;5017351;28;20422;-60
2022/12/06 02:57:49;;;;;;;2.40;2.20;;;2.40;98.70;;;;;;5029617;28;20513;-60
2022/12/06 03:00:36;;;;;;;3.03;2.60;;;2.40;98.80;;;;;;5031850;28;20456;-60
2022/12/06 03:03:15;;;;;;;2.13;1.93;;;2.30;99.00;;;;;;5033480;28;20417;-60
2022/12/06 03:06:02;;;;;;;3.20;2.60;;;2.30;98.90;;;;;;5029523;28;20463;-60
2022/12/06 03:09:17;;;;;;;3.03;2.73;;;2.20;98.90;;;;;;5037258;28;20488;-60
2022/12/06 03:11:55;;;;;;;2.80;2.60;;;2.20;98.70;;;;;;5042015;28;20523;-60
2022/12/06 03:14:26;;;;;;;2.87;2.47;;;2.20;99.00;;;;;;5029713;28;20441;-60
2022/12/06 03:16:58;;;;;;;3.43;2.53;;;2.20;99.10;;;;;;5017893;28;20430;-60
2022/12/06 03:19:27;;;;;;;3.37;2.77;;;2.20;99.20;;;;;;5030626;28;20429;-60
2022/12/06 03:22:02;;;;;;;2.30;2.00;;;2.20;99.30;;;;;;5031906;28;20438;-60
2022/12/06 03:24:32;;;;;;;4.77;2.53;;;2.20;99.30;;;;;;5015902;28;20549;-60
2022/12/06 03:27:00;;;;;;;3.20;2.40;;;2.20;99.30;;;;;;5034407;28;20436;-60
2022/12/06 03:29:29;;;;;;;2.67;2.47;;;2.20;99.40;;;;;;5031757;28;20430;-60
2022/12/06 03:31:59;;;;;;;3.53;2.20;;;2.20;99.20;;;;;;5028905;28;20430;-60
2022/12/06 03:34:29;;;;;;;2.60;2.23;;;2.20;99.20;;;;;;5034420;28;20440;-60
2022/12/06 03:36:57;;;;;;;2.00;1.80;;;2.10;98.90;;;;;;5034218;28;20475;-60
2022/12/06 03:39:37;;;;;;;3.00;2.70;;;2.10;98.90;;;;;;5016631;28;20438;-60
2022/12/06 03:42:03;;;;;;;2.33;2.13;;;2.10;98.90;;;;;;5033927;28;20448;-60
2022/12/06 03:44:30;;;;;;;2.60;2.07;;;2.00;99.00;;;;;;5019549;28;20487;-60
2022/12/06 03:47:06;;;;;;;4.90;2.67;;;2.00;98.90;;;;;;5034572;28;20425;-60
2022/12/06 03:49:38;;;;;;;3.17;2.57;;;2.00;98.90;;;;;;5035343;28;20443;-60
2022/12/06 03:52:04;;;;;;;2.57;2.37;;;2.00;98.90;;;;;;5035084;28;20512;-60
2022/12/06 03:54:30;;;;;;;2.30;2.10;;;1.90;99.10;;;;;;5030609;28;20445;-60
2022/12/06 03:56:56;;;;;;;4.70;3.40;;;2.00;99.10;;;;;;5023372;28;20427;-60
2022/12/06 03:59:21;;;;;;;8.63;3.83;;;2.00;99.10;;;;;;5003843;28;20202;-60
2022/12/06 04:01:47;;;;;;;6.00;4.33;;;2.00;99.40;;;;;;5034632;28;20191;-60
2022/12/06 04:04:13;;;;;;;3.10;2.60;;;2.10;99.60;;;;;;5010308;28;20208;-60
2022/12/06 04:06:38;;;;;;;3.60;2.80;;;2.10;99.80;;;;;;5031543;28;20650;-60
2022/12/06 04:11:48;;;;;;;3.77;2.80;;;2.20;99.90;;;;;;5034175;28;20222;-60
2022/12/06 04:14:14;;;;;;;3.20;2.83;;;2.30;99.90;;;;;;5003966;28;20438;-60
2022/12/06 04:19:23;;;;;;;5.60;3.30;;;2.40;99.90;;;;;;5026980;28;20190;-60
2022/12/06 04:24:33;;;;;;;3.97;3.20;;;2.50;99.90;;;;;;5014597;28;20344;-60
2022/12/06 04:40:43;;;;;;;3.27;2.23;;;2.70;99.90;;;;;;5018216;28;20465;-60
2022/12/06 04:45:54;;;;;;;3.87;3.23;;;2.70;99.90;;;;;;5030280;28;20213;-60
2022/12/06 04:48:19;;;;;;;2.47;2.27;;;2.80;99.90;;;;;;5028036;28;20418;-60
2022/12/06 04:50:51;;;;;;;2.97;2.60;;;2.80;99.90;;;;;;4994989;28;20191;-60
2022/12/06 04:53:17;;;;;;;3.50;3.20;;;2.80;99.90;;;;;;4999936;28;20211;-60
2022/12/06 04:55:47;;;;;;;4.60;3.03;;;2.80;99.90;;;;;;5019465;28;20477;-59
2022/12/06 04:58:13;;;;;;;2.70;2.50;;;2.80;99.90;;;;;;5024678;28;20266;-59
2022/12/06 05:00:42;;;;;;;4.40;3.10;;;2.80;99.90;;;;;;5015526;28;20451;-60
2022/12/06 05:03:12;;;;;;;3.13;2.73;;;2.80;99.90;;;;;;5012414;28;20457;-60
2022/12/06 05:05:38;;;;;;;4.47;3.43;;;2.80;99.90;;;;;;5001371;28;20469;-60
2022/12/06 05:08:04;;;;;;;2.90;2.60;;;2.80;99.90;;;;;;4999800;28;20434;-60
2022/12/06 05:10:30;;;;;;;3.60;2.60;;;2.90;99.90;;;;;;5026050;28;20433;-60
2022/12/06 05:12:56;;;;;;;3.00;2.70;;;2.90;99.90;;;;;;5031518;28;20455;-59
2022/12/06 05:15:22;;;;;;;6.13;4.80;;;2.90;99.90;;;;;;4995954;28;20447;-60
2022/12/06 05:17:48;;;;;;;3.43;2.73;;;2.90;99.80;;;;;;5042898;28;20244;-60
2022/12/06 05:20:13;;;;;;;6.13;4.70;;;2.90;99.80;;;;;;5032847;28;20195;-60
2022/12/06 05:22:40;;;;;;;6.27;4.50;;;2.80;99.60;;;;;;5008129;28;20200;-60
2022/12/06 05:25:06;;;;;;;4.40;3.80;;;2.80;99.20;;;;;;4998326;28;20250;-60
2022/12/06 05:27:32;;;;;;;4.03;3.30;;;2.80;99.50;;;;;;5035430;28;20439;-60
2022/12/06 05:29:58;;;;;;;4.83;3.53;;;2.90;99.80;;;;;;5016131;28;20444;-60
2022/12/06 05:32:24;;;;;;;5.10;4.17;;;2.90;99.90;;;;;;5008364;28;20194;-60
2022/12/06 05:34:49;;;;;;;3.67;3.00;;;2.90;99.90;;;;;;5030117;28;20190;-60
2022/12/06 05:37:15;;;;;;;4.37;3.60;;;2.90;99.90;;;;;;5017046;28;20199;-60
2022/12/06 05:39:41;;;;;;;8.27;5.90;;;3.00;99.90;;;;;;5017445;28;20257;-60
2022/12/06 05:42:07;;;;;;;4.17;3.77;;;3.00;99.90;;;;;;5000732;28;20187;-61
2022/12/06 05:44:33;;;;;;;3.70;3.30;;;3.00;99.90;;;;;;5022655;28;20238;-61
2022/12/06 05:46:58;;;;;;;8.23;6.00;;;3.00;99.90;;;;;;5011849;28;20247;-61
2022/12/06 05:49:24;;;;;;;7.30;5.67;;;3.00;99.90;;;;;;5028514;28;20183;-61
2022/12/06 05:51:50;;;;;;;6.23;4.60;;;3.00;99.90;;;;;;5021003;28;20186;-61
2022/12/06 05:54:16;;;;;;;6.83;5.17;;;3.00;99.90;;;;;;5018755;28;20206;-61
2022/12/06 05:56:41;;;;;;;10.87;6.90;;;3.10;99.90;;;;;;5017097;28;20568;-61
2022/12/06 05:59:07;;;;;;;8.23;6.40;;;3.10;99.90;;;;;;5019241;28;20279;-61
2022/12/06 06:01:33;;;;;;;8.10;6.20;;;3.00;99.70;;;;;;5016535;28;20229;-61
2022/12/06 06:03:58;;;;;;;7.07;5.67;;;3.10;99.90;;;;;;5000881;28;20218;-61
2022/12/06 06:06:24;;;;;;;6.27;4.57;;;3.10;99.90;;;;;;4998776;28;20191;-61
2022/12/06 06:08:51;;;;;;;8.13;6.17;;;3.10;99.90;;;;;;4989911;28;20194;-61
2022/12/06 06:11:17;;;;;;;10.07;6.90;;;3.10;99.90;;;;;;5013415;28;20189;-61
2022/12/06 06:13:42;;;;;;;8.43;6.07;;;3.10;99.90;;;;;;5016063;28;20441;-61
2022/12/06 06:16:08;;;;;;;6.67;5.10;;;3.10;99.90;;;;;;5006486;28;20188;-60
2022/12/06 06:18:34;;;;;;;7.63;5.67;;;3.10;99.90;;;;;;4997075;28;20198;-61
2022/12/06 06:21:00;;;;;;;7.47;5.83;;;3.10;99.90;;;;;;5003131;28;20197;-61
2022/12/06 06:23:27;;;;;;;10.17;7.33;;;3.20;99.90;;;;;;5021383;28;20196;-61
2022/12/06 06:25:53;;;;;;;8.70;6.93;;;3.20;99.90;;;;;;5003329;28;20496;-61
2022/12/06 06:28:19;;;;;;;9.83;6.50;;;3.20;99.90;;;;;;5032097;28;20939;-61
2022/12/06 06:30:45;;;;;;;9.40;6.03;;;3.30;99.90;;;;;;5027609;28;20410;-61
2022/12/06 06:33:11;;;;;;;11.23;6.90;;;3.30;99.90;;;;;;5009079;28;20437;-62
2022/12/06 06:35:38;;;;;;;10.83;7.27;;;3.30;99.50;;;;;;5028601;28;20211;-61
2022/12/06 06:38:04;;;;;;;8.77;6.27;;;3.40;99.70;;;;;;5025986;28;20421;-61
2022/12/06 06:40:30;;;;;;;10.00;6.80;;;3.40;99.50;;;;;;5002822;28;20450;-61
2022/12/06 06:42:56;;;;;;;9.20;6.80;;;3.40;99.30;;;;;;5000130;28;20286;-61
2022/12/06 06:45:23;;;;;;;8.17;6.03;;;3.40;99.30;;;;;;5031073;28;20501;-61
2022/12/06 06:47:49;;;;;;;9.07;6.37;;;3.40;99.20;;;;;;5030565;28;20439;-61
2022/12/06 06:50:14;;;;;;;8.50;6.07;;;3.30;99.10;;;;;;4994782;28;20423;-61
2022/12/06 06:52:41;;;;;;;9.00;6.37;;;3.40;99.00;;;;;;4996553;28;20183;-61
2022/12/06 06:55:07;;;;;;;9.53;6.73;;;3.40;99.30;;;;;;5010461;28;20271;-61
2022/12/06 06:57:34;;;;;;;8.30;6.57;;;3.40;99.20;;;;;;4995640;28;20503;-61
2022/12/06 07:00:00;;;;;;;7.47;6.10;;;3.40;99.30;;;;;;5001518;28;20440;-61
2022/12/06 07:02:26;;;;;;;6.90;5.73;;;3.50;99.10;;;;;;5030931;28;20964;-62
2022/12/06 07:04:52;;;;;;;6.90;5.10;;;3.50;99.00;;;;;;5034252;28;20216;-61
2022/12/06 07:07:17;;;;;;;6.70;5.03;;;3.50;99.20;;;;;;5017944;28;20190;-61
2022/12/06 07:09:43;;;;;;;6.47;5.33;;;3.50;99.30;;;;;;4998622;28;20278;-61
2022/12/06 07:12:09;;;;;;;7.63;5.60;;;3.50;99.00;;;;;;5009392;28;20553;-61
2022/12/06 07:14:34;;;;;;;7.10;5.17;;;3.50;99.20;;;;;;5012097;28;20638;-61
2022/12/06 07:17:00;;;;;;;6.57;5.60;;;3.50;99.20;;;;;;5004588;28;20195;-61
2022/12/06 07:19:26;;;;;;;7.83;5.90;;;3.50;99.00;;;;;;5017541;28;20190;-61
2022/12/06 07:21:52;;;;;;;7.13;6.20;;;3.50;98.70;;;;;;5030344;28;20445;-61
2022/12/06 07:24:17;;;;;;;9.17;6.90;;;3.50;99.10;;;;;;5012302;28;20216;-61
2022/12/06 07:26:43;;;;;;;9.10;7.00;;;3.60;99.00;;;;;;4998860;28;20183;-61
2022/12/06 07:29:09;;;;;;;7.03;6.33;;;3.60;98.60;;;;;;5000911;28;20179;-61
2022/12/06 07:31:34;;;;;;;7.17;6.33;;;3.60;99.10;;;;;;5031089;28;20215;-61
2022/12/06 07:34:01;;;;;;;8.00;6.87;;;3.60;99.10;;;;;;5016213;28;20191;-61
2022/12/06 07:36:29;;;;;;;8.17;6.80;;;3.60;99.00;;;;;;5025292;28;20191;-62
2022/12/06 07:38:57;;;;;;;8.03;6.10;;;3.60;99.00;;;;;;5026342;28;20421;-61
2022/12/06 07:46:56;;;;;;;9.43;6.80;;;3.70;99.10;;;;;;5018878;28;20433;-61
2022/12/06 07:49:22;;;;;;;7.70;5.60;;;3.80;99.20;;;;;;5018865;28;20418;-61
2022/12/06 07:51:47;;;;;;;8.23;6.77;;;3.80;99.20;;;;;;5031148;28;20437;-62
2022/12/06 07:54:15;;;;;;;7.80;6.67;;;3.90;99.00;;;;;;5028123;28;20437;-61
2022/12/06 07:56:41;;;;;;;6.97;5.67;;;3.80;98.80;;;;;;5017280;28;20190;-61
2022/12/06 07:59:07;;;;;;;7.30;6.27;;;3.90;98.70;;;;;;5032987;28;20928;-62
2022/12/06 08:01:34;;;;;;;7.70;6.63;;;3.90;98.80;;;;;;5014336;28;20446;-61
2022/12/06 08:04:00;;;;;;;6.00;5.40;;;3.90;98.80;;;;;;5028255;28;20501;-61
2022/12/06 08:06:27;;;;;;;5.73;5.23;;;3.90;98.40;;;;;;5032592;28;20422;-61
2022/12/06 08:08:53;;;;;;;6.10;5.33;;;3.90;98.30;;;;;;5033274;28;20429;-61
2022/12/06 08:11:19;;;;;;;7.07;6.30;;;3.90;98.70;;;;;;5032824;28;20442;-61
2022/12/06 08:13:45;;;;;;;9.23;6.50;;;3.90;98.50;;;;;;5012405;28;20438;-61
2022/12/06 08:16:12;;;;;;;9.33;7.60;;;4.00;98.50;;;;;;5002419;28;20445;-61
2022/12/06 08:18:39;;;;;;;9.03;6.67;;;3.90;96.70;;;;;;5035413;28;20191;-62
2022/12/06 08:21:05;;;;;;;8.53;6.80;;;3.70;94.80;;;;;;5024207;28;20437;-61
2022/12/06 08:23:31;;;;;;;9.10;7.47;;;3.80;97.50;;;;;;5030686;28;20468;-61
2022/12/06 08:25:57;;;;;;;7.43;6.37;;;3.80;97.20;;;;;;4996082;28;20438;-62
2022/12/06 08:28:23;;;;;;;8.70;7.63;;;3.90;97.50;;;;;;5026117;28;20187;-61
2022/12/06 08:30:49;;;;;;;8.37;6.53;;;3.90;97.50;;;;;;5033311;28;20433;-61
2022/12/06 08:33:15;;;;;;;7.83;6.67;;;3.90;97.50;;;;;;5001199;28;20449;-61
2022/12/06 08:35:40;;;;;;;7.47;5.73;;;4.00;98.20;;;;;;5012952;28;20273;-62
2022/12/06 08:38:06;;;;;;;7.07;5.97;;;4.10;97.80;;;;;;5047464;28;20296;-61
2022/12/06 08:40:32;;;;;;;8.37;6.77;;;4.10;97.50;;;;;;4997427;28;20266;-62
2022/12/06 08:42:57;;;;;;;8.93;6.43;;;4.10;97.50;;;;;;5003154;28;20646;-62
2022/12/06 08:45:23;;;;;;;8.43;6.73;;;4.10;97.00;;;;;;5009130;28;20239;-61
2022/12/06 08:47:48;;;;;;;8.83;6.17;;;4.10;97.10;;;;;;4993705;28;20191;-61
2022/12/06 08:50:14;;;;;;;7.60;6.17;;;4.10;97.30;;;;;;5007891;28;20190;-61
2022/12/06 08:52:40;;;;;;;8.73;7.03;;;4.00;97.80;;;;;;4999655;28;20190;-62
2022/12/06 08:55:06;;;;;;;8.07;6.90;;;4.00;97.90;;;;;;5016984;28;20255;-62
2022/12/06 08:57:32;;;;;;;8.40;6.50;;;4.00;97.90;;;;;;5012995;28;20192;-62
2022/12/06 08:59:58;;;;;;;8.37;6.10;;;4.10;98.00;;;;;;5007850;28;20442;-62
2022/12/06 09:02:23;;;;;;;11.17;8.73;;;4.10;98.40;;;;;;5009077;28;20434;-62
2022/12/06 09:04:50;;;;;;;9.57;7.97;;;4.10;97.60;;;;;;4999534;28;20267;-62
2022/12/06 09:07:16;;;;;;;9.13;7.97;;;4.10;97.70;;;;;;5032343;28;20190;-62
2022/12/06 09:09:42;;;;;;;10.43;8.40;;;4.20;98.20;;;;;;4995745;28;20434;-62
2022/12/06 09:12:08;;;;;;;10.77;8.50;;;4.20;98.10;;;;;;4991808;28;20433;-61
2022/12/06 09:14:33;;;;;;;12.67;9.70;;;4.30;98.40;;;;;;5016762;28;20196;-62
2022/12/06 09:16:59;;;;;;;13.17;10.53;;;4.40;98.50;;;;;;4989379;28;20202;-62
2022/12/06 09:19:24;;;;;;;11.03;8.93;;;4.40;98.30;;;;;;4999472;28;20217;-62
2022/12/06 09:21:50;;;;;;;10.77;9.00;;;4.50;98.10;;;;;;5028463;28;20196;-62
2022/12/06 09:24:17;;;;;;;10.20;8.77;;;4.50;98.30;;;;;;4994523;28;20214;-62
2022/12/06 09:26:43;;;;;;;9.60;7.83;;;4.50;98.00;;;;;;5015172;28;20183;-62
2022/12/06 09:29:09;;;;;;;10.93;9.47;;;4.50;98.10;;;;;;5011953;28;20456;-62
2022/12/06 09:31:39;;;;;;;9.90;8.87;;;4.40;96.90;;;;;;5006252;28;20433;-62
2022/12/06 09:34:09;;;;;;;11.23;9.13;;;4.40;97.90;;;;;;5019721;28;20646;-62
2022/12/06 09:36:57;;;;;;;8.80;7.90;;;4.40;98.40;;;;;;5008939;28;20440;-62
2022/12/06 09:39:36;;;;;;;9.63;8.47;;;4.50;98.50;;;;;;5028574;28;20441;-62
2022/12/06 09:42:30;;;;;;;10.20;8.07;;;4.50;98.30;;;;;;5016333;28;20476;-62
2022/12/06 09:45:06;;;;;;;9.17;7.80;;;4.50;98.20;;;;;;5030298;28;20499;-61
2022/12/06 09:47:56;;;;;;;8.00;7.20;;;4.50;97.70;;;;;;5030546;28;20437;-62
2022/12/06 09:50:47;;;;;;;8.23;7.07;;;4.60;98.40;;;;;;5032755;28;20439;-62
2022/12/06 09:53:25;;;;;;;9.53;7.33;;;4.70;98.60;;;;;;5025882;28;20438;-62
2022/12/06 09:56:09;;;;;;;9.53;8.60;;;4.80;98.70;;;;;;5018365;28;20531;-62
2022/12/06 09:58:41;;;;;;;9.77;8.30;;;4.90;98.50;;;;;;5021793;28;20434;-61
2022/12/06 10:01:19;;;;;;;8.20;7.40;;;5.00;98.00;;;;;;5028590;28;20827;-62
2022/12/06 10:04:16;;;;;;;8.37;7.50;;;5.00;97.50;;;;;;5021153;28;20475;-62
2022/12/06 10:07:02;;;;;;;8.53;7.73;;;5.00;97.80;;;;;;5029242;28;20468;-62
2022/12/06 10:09:45;;;;;;;8.70;7.80;;;5.00;96.40;;;;;;5038830;28;20441;-62
2022/12/06 10:12:29;;;;;;;9.07;7.20;;;5.00;97.30;;;;;;5030375;28;20467;-62
2022/12/06 10:15:25;;;;;;;8.40;7.60;;;4.90;94.50;;;;;;5016262;28;20793;-62
2022/12/06 10:18:06;;;;;;;8.07;7.17;;;4.90;96.20;;;;;;5026054;28;20431;-62
2022/12/06 10:20:37;;;;;;;8.67;7.80;;;4.80;94.90;;;;;;5030306;28;20434;-62
2022/12/06 10:23:14;;;;;;;8.83;7.67;;;4.70;95.70;;;;;;5030338;28;20460;-62
2022/12/06 10:26:02;;;;;;;8.87;7.53;;;4.70;96.80;;;;;;5030864;28;20487;-62
2022/12/06 10:29:07;;;;;;;12.37;9.13;;;4.70;97.00;;;;;;5031911;28;20426;-62
2022/12/06 10:31:46;;;;;;;9.43;8.43;;;4.70;96.20;;;;;;5033576;28;20422;-61
2022/12/06 10:34:24;;;;;;;8.27;7.47;;;4.70;97.10;;;;;;5024358;28;20448;-62
2022/12/06 10:37:21;;;;;;;8.17;7.37;;;4.70;97.30;;;;;;5030770;28;20429;-62
2022/12/06 10:40:12;;;;;;;7.67;6.13;;;4.70;97.00;;;;;;5026459;28;20474;-62
2022/12/06 10:42:44;;;;;;;9.73;8.73;;;4.70;97.50;;;;;;5009708;28;20440;-62
2022/12/06 10:48:33;;;;;;;10.90;9.57;;;4.80;97.60;;;;;;5020353;28;20581;-62
2022/12/06 10:51:22;;;;;;;9.60;8.60;;;4.80;96.70;;;;;;5028715;28;20863;-62
2022/12/06 10:53:54;;;;;;;11.00;9.90;;;4.80;97.00;;;;;;5038249;28;20445;-62
2022/12/06 10:56:33;;;;;;;10.67;9.57;;;4.90;96.50;;;;;;5029215;28;20464;-62
2022/12/06 10:59:22;;;;;;;10.33;9.33;;;4.90;97.10;;;;;;5017149;28;20456;-62
2022/12/06 11:01:49;;;;;;;11.43;9.17;;;4.90;97.20;;;;;;5029938;28;20436;-62
2022/12/06 11:04:21;;;;;;;11.67;10.47;;;4.90;97.20;;;;;;5010028;28;20540;-62
2022/12/06 11:06:52;;;;;;;11.87;10.23;;;5.00;97.50;;;;;;5029791;28;20429;-62
2022/12/06 11:09:39;;;;;;;9.07;8.10;;;5.00;97.30;;;;;;5030357;28;20437;-62
2022/12/06 11:12:28;;;;;;;11.87;9.97;;;5.00;97.80;;;;;;5027145;28;20489;-62
2022/12/06 11:15:01;;;;;;;15.37;13.70;;;5.00;95.90;;;;;;5025777;28;20437;-62
2022/12/06 11:17:31;;;;;;;14.30;12.60;;;5.00;94.30;;;;;;5021941;28;20515;-62
2022/12/06 11:20:14;;;;;;;15.87;14.20;;;5.10;93.20;;;;;;5027929;28;20452;-62
2022/12/06 11:36:08;;;;;;;21.33;17.97;;;5.30;93.50;;;;;;5022904;28;20460;-62
2022/12/06 11:38:38;;;;;;;22.60;16.80;;;5.30;92.90;;;;;;5024833;28;20417;-62
2022/12/06 11:41:09;;;;;;;20.67;16.43;;;5.30;93.40;;;;;;5031346;28;20191;-62
2022/12/06 11:43:35;;;;;;;20.83;15.50;;;5.40;93.70;;;;;;5031064;28;20539;-62
2022/12/06 11:46:03;;;;;;;21.03;17.33;;;5.40;92.60;;;;;;5047358;28;20551;-62
2022/12/06 11:48:32;;;;;;;22.47;18.87;;;5.30;90.40;;;;;;5034168;28;20425;-62
2022/12/06 11:50:58;;;;;;;18.67;15.30;;;5.30;93.20;;;;;;5034617;28;20846;-62
2022/12/06 11:53:55;;;;;;;19.57;15.13;;;5.40;94.80;;;;;;5035798;28;20495;-62
2022/12/06 11:56:29;;;;;;;17.40;14.53;;;5.50;95.10;;;;;;5033742;28;20207;-62
2022/12/06 11:59:13;;;;;;;15.70;13.53;;;5.60;94.80;;;;;;5034689;28;20443;-62
2022/12/06 12:01:45;;;;;;;16.97;14.27;;;5.60;95.60;;;;;;5015143;28;20426;-62
2022/12/06 12:04:41;;;;;;;12.70;11.40;;;5.70;95.40;;;;;;5032574;28;20823;-62
2022/12/06 12:07:16;;;;;;;14.03;12.17;;;5.80;95.90;;;;;;5021121;28;20426;-62
2022/12/06 12:09:51;;;;;;;16.80;13.30;;;5.80;95.70;;;;;;5034832;28;20413;-62
2022/12/06 12:15:30;;;;;;;15.03;12.17;;;5.80;92.70;;;;;;5035428;28;20417;-62
2022/12/06 12:17:58;;;;;;;13.43;11.83;;;5.70;93.90;;;;;;5026571;28;20434;-62
2022/12/06 12:20:38;;;;;;;12.00;10.77;;;5.90;93.90;;;;;;5017085;28;20449;-62
2022/12/06 12:23:13;;;;;;;15.23;10.83;;;5.90;94.10;;;;;;5028941;28;20713;-62
2022/12/06 12:25:41;;;;;;;14.60;10.17;;;6.00;94.00;;;;;;5032062;28;20466;-62
2022/12/06 12:28:28;;;;;;;12.33;11.03;;;5.90;91.40;;;;;;5025369;28;20949;-62
2022/12/06 12:30:56;;;;;;;11.80;10.60;;;5.50;87.50;;;;;;5029050;28;20445;-62
2022/12/06 12:33:26;;;;;;;12.43;9.87;;;5.20;89.50;;;;;;5014510;28;20427;-62
2022/12/06 12:36:02;;;;;;;11.87;8.43;;;5.30;91.40;;;;;;5016075;28;20450;-62
2022/12/06 12:38:35;;;;;;;10.13;9.13;;;5.30;91.30;;;;;;5031882;28;20429;-62
2022/12/06 12:41:23;;;;;;;8.93;8.03;;;5.30;91.50;;;;;;5030771;28;20430;-62
2022/12/06 12:44:19;;;;;;;9.63;7.43;;;5.50;92.60;;;;;;5032250;28;20465;-62
2022/12/06 12:46:51;;;;;;;9.90;8.00;;;5.50;90.10;;;;;;5018971;28;20532;-62
2022/12/06 12:49:22;;;;;;;11.40;8.10;;;5.50;89.30;;;;;;5018311;28;20442;-62
2022/12/06 12:51:48;;;;;;;11.27;9.80;;;5.50;87.80;;;;;;5013666;28;20426;-62
2022/12/06 12:54:31;;;;;;;14.73;10.87;;;5.50;88.40;;;;;;5026916;28;20430;-62
2022/12/06 12:56:58;;;;;;;13.80;10.73;;;5.50;88.90;;;;;;5016790;28;20492;-62
2022/12/06 12:59:27;;;;;;;16.77;14.60;;;5.30;89.10;;;;;;5030533;28;20994;-62
2022/12/06 13:02:10;;;;;;;19.43;14.93;;;5.30;89.60;;;;;;5020764;28;20431;-62
2022/12/06 13:04:44;;;;;;;18.87;13.70;;;5.30;90.10;;;;;;5024543;28;20462;-62
2022/12/06 13:07:33;;;;;;;19.13;14.70;;;5.10;87.20;;;;;;5029945;28;20457;-62
2022/12/06 13:10:04;;;;;;;21.83;17.13;;;4.90;88.70;;;;;;5022217;28;20456;-62
2022/12/06 13:12:50;;;;;;;21.83;16.13;;;4.90;89.40;;;;;;5029676;28;20427;-62
2022/12/06 13:15:30;;;;;;;19.90;15.80;;;4.90;90.00;;;;;;5020462;28;20428;-62
2022/12/06 13:18:25;;;;;;;16.90;13.27;;;4.90;89.60;;;;;;5020958;28;20437;-63
2022/12/06 13:20:54;;;;;;;15.87;11.37;;;4.90;92.60;;;;;;5028439;28;20436;-63
2022/12/06 13:23:23;;;;;;;11.50;10.40;;;5.00;92.90;;;;;;5031330;28;20429;-62
2022/12/06 13:26:04;;;;;;;12.73;9.97;;;5.00;90.40;;;;;;5031583;28;20959;-63
2022/12/06 13:28:37;;;;;;;10.00;9.00;;;4.80;90.10;;;;;;5038959;28;20866;-62
2022/12/06 13:31:10;;;;;;;9.80;8.13;;;4.80;91.40;;;;;;5037778;28;20437;-61
2022/12/06 13:33:43;;;;;;;11.10;8.57;;;4.90;91.30;;;;;;5028637;28;20424;-62
2022/12/06 13:36:12;;;;;;;8.57;7.67;;;4.80;90.10;;;;;;5030250;28;20445;-62
2022/12/06 13:38:40;;;;;;;9.43;8.23;;;4.70;90.80;;;;;;5026100;28;20436;-62
2022/12/06 13:44:58;;;;;;;10.90;9.23;;;4.60;92.50;;;;;;5027320;28;20495;-62
2022/12/06 13:47:26;;;;;;;9.37;8.47;;;4.60;91.40;;;;;;5022710;28;20485;-62
2022/12/06 13:49:56;;;;;;;8.33;7.40;;;4.50;92.20;;;;;;5025996;28;20448;-62
2022/12/06 13:52:40;;;;;;;7.60;6.50;;;4.60;93.70;;;;;;5014791;28;20436;-62
2022/12/06 13:55:24;;;;;;;8.87;7.97;;;4.70;94.30;;;;;;5023222;28;20967;-62
2022/12/06 13:57:51;;;;;;;12.37;9.97;;;4.70;94.40;;;;;;5026445;28;20420;-62
2022/12/06 14:00:28;;;;;;;11.20;9.97;;;4.70;93.30;;;;;;5027404;28;20992;-63
2022/12/06 14:03:20;;;;;;;14.00;9.93;;;4.70;94.10;;;;;;5030083;28;20425;-62
2022/12/06 14:05:59;;;;;;;10.77;8.97;;;4.70;93.40;;;;;;5024928;28;20470;-62
2022/12/06 14:08:51;;;;;;;9.73;8.83;;;4.70;94.30;;;;;;5024932;28;20430;-63